Time;durP1;ratioP1;P1;durP2;ratioP2;P2;SDS_P1;SDS_P2;PMS_P1;PMS_P2;Temp;Humidity;BMP_temperature;BMP_pressure;BME280_temperature;BME280_humidity;BME280_pressure;Samples;Min_cycle;Max_cycle;Signal;HPM_P1;HPM_P2
2023/06/07 00:01:25;;;;;;;3.47;2.13;;;;;;;16.04;57.44;95024.56;5075011;28;20036;-74
2023/06/07 00:03:51;;;;;;;5.13;2.20;;;;;;;15.81;59.58;95033.94;5090661;28;20032;-74
2023/06/07 00:06:16;;;;;;;7.75;2.45;;;;;;;15.74;58.45;95028.50;5081800;28;20098;-74
2023/06/07 00:08:43;;;;;;;3.10;2.28;;;;;;;15.82;58.13;95027.72;5053801;28;20025;-74
2023/06/07 00:11:09;;;;;;;2.95;2.03;;;;;;;15.88;58.47;95029.75;5071321;28;20032;-74
2023/06/07 00:13:35;;;;;;;4.90;2.15;;;;;;;15.94;57.53;95023.88;5087998;28;20505;-74
2023/06/07 00:16:00;;;;;;;4.80;2.33;;;;;;;16.06;56.63;95033.09;5084491;28;20032;-74
2023/06/07 00:18:28;;;;;;;4.85;2.30;;;;;;;15.98;56.92;95025.19;5088927;28;20032;-74
2023/06/07 00:20:53;;;;;;;3.38;2.22;;;;;;;16.10;55.52;95025.75;5077377;28;20465;-74
2023/06/07 00:23:20;;;;;;;2.83;2.20;;;;;;;15.85;55.11;95027.41;5067567;28;20035;-74
2023/06/07 00:25:46;;;;;;;2.92;1.90;;;;;;;15.89;55.61;95018.28;5071257;28;20083;-74
2023/06/07 00:28:11;;;;;;;3.60;2.08;;;;;;;16.04;54.61;95014.09;5086177;28;20478;-74
2023/06/07 00:30:36;;;;;;;3.30;1.95;;;;;;;15.96;54.92;95013.22;5079726;28;20040;-74
2023/06/07 00:33:02;;;;;;;5.60;2.30;;;;;;;16.04;54.20;95011.47;5072089;28;20028;-74
2023/06/07 00:35:27;;;;;;;2.90;1.90;;;;;;;15.88;53.39;94987.81;5071619;28;20040;-74
2023/06/07 00:37:53;;;;;;;4.50;2.40;;;;;;;15.77;53.77;95001.19;5054183;28;20036;-74
2023/06/07 00:40:18;;;;;;;5.20;1.80;;;;;;;15.85;54.51;95014.31;5085751;28;20504;-74
2023/06/07 00:42:44;;;;;;;3.42;2.00;;;;;;;15.93;53.72;95000.44;5057439;28;20024;-74
2023/06/07 00:45:10;;;;;;;5.38;1.98;;;;;;;15.66;55.56;94994.38;5073025;28;20031;-74
2023/06/07 00:47:38;;;;;;;4.32;2.13;;;;;;;15.67;54.04;94996.00;5088967;28;20028;-74
2023/06/07 00:50:04;;;;;;;3.65;2.20;;;;;;;15.75;54.32;94993.47;5070136;28;20056;-74
2023/06/07 00:52:30;;;;;;;4.22;2.08;;;;;;;15.86;54.51;94997.63;5081920;28;20023;-74
2023/06/07 00:54:55;;;;;;;5.57;2.15;;;;;;;15.89;53.88;94994.69;5089838;28;20032;-74
2023/06/07 00:57:21;;;;;;;2.92;2.00;;;;;;;15.79;53.83;94979.06;5072228;28;20029;-74
2023/06/07 00:59:46;;;;;;;3.40;2.17;;;;;;;15.85;53.26;94994.19;5056649;28;20085;-74
2023/06/07 01:02:14;;;;;;;3.65;2.28;;;;;;;15.86;53.26;94987.97;5057145;28;20036;-74
2023/06/07 01:04:40;;;;;;;3.83;2.03;;;;;;;15.93;53.15;94998.63;5073223;28;20051;-74
2023/06/07 01:07:07;;;;;;;4.40;2.08;;;;;;;15.93;53.99;94988.16;5055410;28;20063;-73
2023/06/07 01:09:32;;;;;;;4.28;2.05;;;;;;;15.95;52.46;94999.31;5056996;28;20077;-73
2023/06/07 01:11:58;;;;;;;3.40;2.17;;;;;;;15.69;52.97;94993.28;5090879;28;20036;-74
2023/06/07 01:14:23;;;;;;;4.53;2.17;;;;;;;15.76;52.72;94975.97;5075611;28;20024;-74
2023/06/07 01:16:50;;;;;;;4.03;1.95;;;;;;;15.80;52.32;94995.63;5053714;28;20123;-74
2023/06/07 01:19:23;;;;;;;4.57;2.10;;;;;;;15.61;52.70;94997.44;5071063;28;20020;-74
2023/06/07 01:21:51;;;;;;;3.08;1.83;;;;;;;15.75;51.82;94992.66;5075888;28;20459;-74
2023/06/07 01:24:18;;;;;;;3.42;2.20;;;;;;;15.78;51.97;94981.88;5070107;28;20032;-74
2023/06/07 01:26:47;;;;;;;5.40;1.90;;;;;;;15.91;51.34;94987.53;5087088;28;20047;-75
2023/06/07 01:29:15;;;;;;;3.38;2.08;;;;;;;15.93;51.34;94987.34;5073635;28;20032;-74
2023/06/07 01:31:41;;;;;;;3.47;2.10;;;;;;;15.83;51.69;94993.53;5072912;28;20036;-74
2023/06/07 01:34:06;;;;;;;3.60;2.30;;;;;;;15.85;51.23;94988.97;5090064;28;20028;-74
2023/06/07 01:36:31;;;;;;;4.78;2.13;;;;;;;15.95;50.87;94988.84;5071667;28;20036;-75
2023/06/07 01:38:59;;;;;;;4.20;2.13;;;;;;;15.98;49.98;94985.09;5071079;28;20060;-74
2023/06/07 01:41:25;;;;;;;3.72;2.10;;;;;;;15.94;50.16;94986.38;5070410;28;20107;-74
2023/06/07 01:43:51;;;;;;;6.00;2.10;;;;;;;15.71;50.50;94983.44;5082876;28;20032;-74
2023/06/07 01:46:16;;;;;;;5.28;2.15;;;;;;;15.89;50.14;94984.22;5041668;28;20040;-74
2023/06/07 01:48:42;;;;;;;3.45;2.00;;;;;;;15.80;50.43;94964.22;5059837;28;20055;-74
2023/06/07 01:51:07;;;;;;;3.40;2.00;;;;;;;15.91;50.62;94984.06;5067156;28;20028;-74
2023/06/07 01:53:33;;;;;;;3.38;1.98;;;;;;;15.88;50.31;94966.88;5043919;28;20032;-74
2023/06/07 01:56:10;;;;;;;4.28;2.25;;;;;;;15.58;50.65;94981.22;5070048;28;20509;-74
2023/06/07 01:58:45;;;;;;;3.67;2.10;;;;;;;15.68;50.46;94975.88;5073206;28;20036;-74
2023/06/07 02:01:21;;;;;;;3.58;2.22;;;;;;;15.67;50.96;94980.28;5071905;28;20269;-74
2023/06/07 02:03:51;;;;;;;4.65;2.17;;;;;;;15.53;51.40;94978.25;5052945;28;20111;-74
2023/06/07 02:06:19;;;;;;;4.97;2.30;;;;;;;15.71;50.78;94973.81;5073864;28;20046;-74
2023/06/07 02:08:50;;;;;;;3.17;1.85;;;;;;;15.38;51.26;94972.75;5055340;28;20056;-74
2023/06/07 02:11:16;;;;;;;4.78;2.00;;;;;;;15.38;52.04;94985.84;5053448;28;20032;-74
2023/06/07 02:13:42;;;;;;;4.70;2.10;;;;;;;15.48;52.01;94981.31;5054778;28;20028;-74
2023/06/07 02:16:07;;;;;;;6.13;1.95;;;;;;;15.43;52.12;94978.31;5053837;28;20036;-75
2023/06/07 02:18:37;;;;;;;3.22;2.15;;;;;;;15.47;52.04;94987.53;5089021;28;20436;-74
2023/06/07 02:21:03;;;;;;;4.90;2.20;;;;;;;15.39;52.58;94980.44;5079152;28;20045;-74
2023/06/07 02:23:28;;;;;;;4.07;1.98;;;;;;;15.30;52.59;94980.53;5058511;28;20454;-74
2023/06/07 02:25:53;;;;;;;3.95;2.03;;;;;;;15.40;52.22;94976.00;5050620;28;20050;-74
2023/06/07 02:28:19;;;;;;;4.47;2.03;;;;;;;15.22;52.53;94962.97;5069670;28;20028;-74
2023/06/07 02:30:44;;;;;;;2.75;1.80;;;;;;;15.39;52.71;94971.75;5067743;28;20040;-74
2023/06/07 02:33:13;;;;;;;3.33;1.92;;;;;;;15.31;52.90;94972.50;5087761;28;20032;-74
2023/06/07 02:35:48;;;;;;;3.50;2.08;;;;;;;15.31;53.72;94979.53;5081087;28;20025;-74
2023/06/07 02:38:13;;;;;;;7.95;2.38;;;;;;;15.20;54.10;94978.00;5069322;28;20305;-74
2023/06/07 02:40:39;;;;;;;5.00;2.08;;;;;;;15.17;53.66;94973.06;5072644;28;20486;-74
2023/06/07 02:43:04;;;;;;;3.80;2.28;;;;;;;15.06;53.90;94986.38;5054677;28;20383;-74
2023/06/07 02:45:30;;;;;;;3.97;1.92;;;;;;;15.24;53.52;94989.81;5069706;28;20041;-74
2023/06/07 02:47:55;;;;;;;4.35;2.08;;;;;;;15.30;54.44;94993.63;5072853;28;20032;-74
2023/06/07 02:50:24;;;;;;;4.50;2.00;;;;;;;15.40;53.98;94984.69;5057325;28;20477;-75
2023/06/07 02:52:50;;;;;;;2.78;1.95;;;;;;;15.35;53.96;94988.72;5057073;28;20032;-75
2023/06/07 02:55:16;;;;;;;6.50;2.50;;;;;;;15.36;53.87;94983.34;5056093;28;20032;-74
2023/06/07 02:57:41;;;;;;;4.47;2.20;;;;;;;15.47;53.97;94984.91;5072721;28;20085;-75
2023/06/07 03:00:10;;;;;;;3.97;1.95;;;;;;;15.38;54.34;94988.44;5076070;28;20035;-74
2023/06/07 03:02:36;;;;;;;4.10;1.83;;;;;;;15.46;54.58;94985.91;5076343;28;20024;-75
2023/06/07 03:05:02;;;;;;;3.33;2.10;;;;;;;15.30;55.23;94972.69;5094150;28;20084;-74
2023/06/07 03:07:28;;;;;;;5.72;2.20;;;;;;;14.59;57.92;94971.69;5092462;28;20421;-74
2023/06/07 03:09:53;;;;;;;3.58;2.10;;;;;;;14.85;57.67;94986.66;5092664;28;20028;-74
2023/06/07 03:12:19;;;;;;;3.15;1.98;;;;;;;14.36;60.08;94973.06;5090915;28;20035;-74
2023/06/07 03:14:44;;;;;;;3.42;2.22;;;;;;;14.62;59.99;94973.19;5064473;28;20064;-74
2023/06/07 03:17:11;;;;;;;5.68;2.40;;;;;;;14.54;59.92;94960.84;5086264;28;20020;-74
2023/06/07 03:19:37;;;;;;;4.75;2.30;;;;;;;14.13;61.42;94983.09;5072232;28;20043;-74
2023/06/07 03:22:06;;;;;;;4.35;2.47;;;;;;;14.47;60.57;94980.69;5073634;28;20025;-74
2023/06/07 03:24:36;;;;;;;4.50;2.30;;;;;;;14.61;59.75;94977.63;5073265;28;20143;-74
2023/06/07 03:27:03;;;;;;;4.50;2.30;;;;;;;14.65;59.36;94981.56;5065366;28;20554;-74
2023/06/07 03:29:30;;;;;;;2.97;2.30;;;;;;;14.74;60.21;94980.69;5084458;28;20505;-74
2023/06/07 03:31:55;;;;;;;3.55;2.22;;;;;;;14.68;59.98;94978.69;5073646;28;20031;-74
2023/06/07 03:34:21;;;;;;;4.35;2.30;;;;;;;14.56;60.00;94973.78;5089958;28;20024;-74
2023/06/07 03:36:47;;;;;;;5.00;2.50;;;;;;;14.57;61.22;94965.81;5071127;28;20033;-74
2023/06/07 03:39:13;;;;;;;3.78;2.10;;;;;;;14.47;61.83;94958.00;5071743;28;20024;-74
2023/06/07 03:41:38;;;;;;;4.57;2.10;;;;;;;14.66;61.81;94987.63;5079751;28;20038;-74
2023/06/07 03:44:04;;;;;;;4.30;2.55;;;;;;;14.67;62.89;94992.69;5091877;28;20032;-74
2023/06/07 03:46:29;;;;;;;3.53;2.35;;;;;;;14.62;62.03;94979.25;5090264;28;20446;-75
2023/06/07 03:48:55;;;;;;;3.42;2.08;;;;;;;14.50;62.97;94977.78;5093095;28;20052;-74
2023/06/07 03:51:20;;;;;;;5.53;2.50;;;;;;;14.47;62.49;94988.53;5075211;28;20513;-74
2023/06/07 03:53:46;;;;;;;3.67;2.38;;;;;;;14.22;63.25;94983.03;5075841;28;20612;-74
2023/06/07 03:56:11;;;;;;;5.10;3.13;;;;;;;13.84;65.97;94984.81;5070220;28;20036;-74
2023/06/07 03:58:37;;;;;;;4.25;2.58;;;;;;;14.11;64.87;94980.59;5091228;28;20039;-74
2023/06/07 04:01:03;;;;;;;3.53;2.28;;;;;;;14.05;64.33;94971.56;5091835;28;20035;-74
2023/06/07 04:03:30;;;;;;;4.75;2.15;;;;;;;14.13;65.14;94965.63;5056615;28;20028;-74
2023/06/07 04:05:55;;;;;;;4.95;2.55;;;;;;;14.20;64.87;94979.72;5071478;28;20037;-74
2023/06/07 04:08:21;;;;;;;4.45;2.30;;;;;;;14.49;65.54;94982.19;5071460;28;20179;-74
2023/06/07 04:10:46;;;;;;;6.00;3.10;;;;;;;14.52;63.99;94981.13;5071037;28;20032;-74
2023/06/07 04:13:12;;;;;;;5.30;2.80;;;;;;;14.40;62.38;94956.97;5087503;28;20021;-74
2023/06/07 04:15:37;;;;;;;6.78;2.90;;;;;;;14.57;62.30;94968.44;5077120;28;20043;-74
2023/06/07 04:18:03;;;;;;;4.43;2.70;;;;;;;14.65;61.86;94973.72;5092655;28;20047;-75
2023/06/07 04:20:30;;;;;;;4.75;2.65;;;;;;;14.79;60.92;94979.41;5085863;28;20036;-74
2023/06/07 04:22:55;;;;;;;5.78;2.63;;;;;;;14.82;60.65;94966.03;5071977;28;20032;-74
2023/06/07 04:25:24;;;;;;;4.85;2.58;;;;;;;15.05;60.41;94969.03;5054549;28;20037;-74
2023/06/07 04:27:51;;;;;;;4.30;2.80;;;;;;;15.42;59.47;94974.06;5087325;28;20032;-74
2023/06/07 04:30:18;;;;;;;4.90;2.80;;;;;;;15.39;58.92;94961.28;5089237;28;20114;-75
2023/06/07 04:32:46;;;;;;;4.93;2.53;;;;;;;15.59;58.05;94964.53;5054867;28;20520;-74
2023/06/07 04:35:14;;;;;;;7.60;2.58;;;;;;;15.58;58.68;94966.34;5054927;28;20039;-75
2023/06/07 04:37:42;;;;;;;4.30;2.53;;;;;;;15.87;56.96;94973.06;5070817;28;20052;-75
2023/06/07 04:40:09;;;;;;;7.75;2.80;;;;;;;15.79;57.35;94968.59;5072335;28;20066;-74
2023/06/07 04:42:37;;;;;;;5.68;2.40;;;;;;;15.72;57.37;94966.78;5071625;28;20028;-74
2023/06/07 04:45:03;;;;;;;4.55;2.42;;;;;;;15.92;56.45;94962.94;5054168;28;20039;-75
2023/06/07 04:47:29;;;;;;;4.95;2.63;;;;;;;15.82;57.32;94959.63;5086711;28;20024;-74
2023/06/07 04:49:56;;;;;;;6.22;2.40;;;;;;;15.78;56.83;94950.44;5090616;28;20084;-75
2023/06/07 04:52:21;;;;;;;4.40;2.10;;;;;;;15.96;57.31;94963.44;5089769;28;20031;-75
2023/06/07 04:54:47;;;;;;;3.75;2.15;;;;;;;15.84;57.55;94968.16;5061715;28;20115;-74
2023/06/07 04:57:13;;;;;;;4.25;2.45;;;;;;;16.05;56.05;94965.97;5056889;28;20470;-74
2023/06/07 04:59:42;;;;;;;3.22;2.00;;;;;;;16.10;56.00;94970.72;5075557;28;20074;-74
2023/06/07 05:02:07;;;;;;;4.13;2.30;;;;;;;16.15;57.25;94959.78;5072017;28;20032;-74
2023/06/07 05:04:33;;;;;;;3.80;2.15;;;;;;;16.13;56.33;94969.59;5078490;28;20032;-74
2023/06/07 05:06:58;;;;;;;4.32;2.40;;;;;;;15.65;56.64;94933.31;5090661;28;20481;-74
2023/06/07 05:09:27;;;;;;;5.10;2.05;;;;;;;15.74;57.42;94968.28;5067345;28;20028;-74
2023/06/07 05:11:52;;;;;;;7.57;2.53;;;;;;;15.76;58.79;94947.16;5067603;28;20039;-74
2023/06/07 05:14:18;;;;;;;4.28;2.58;;;;;;;15.81;58.61;94963.22;5087355;28;20472;-74
2023/06/07 05:16:44;;;;;;;3.95;2.45;;;;;;;15.92;57.95;94968.19;5068173;28;20070;-75
2023/06/07 05:19:10;;;;;;;3.60;2.63;;;;;;;16.07;57.69;94965.78;5086252;28;20024;-74
2023/06/07 05:21:36;;;;;;;5.80;2.42;;;;;;;15.74;58.45;94967.44;5051490;28;20090;-74
2023/06/07 05:24:02;;;;;;;3.97;2.40;;;;;;;15.98;57.42;94971.97;5068292;28;20456;-75
2023/06/07 05:26:28;;;;;;;6.15;2.25;;;;;;;16.14;57.12;94955.53;5084075;28;20024;-75
2023/06/07 05:28:53;;;;;;;3.72;2.17;;;;;;;16.12;57.84;94968.78;5085120;28;20024;-75
2023/06/07 05:31:19;;;;;;;4.45;2.22;;;;;;;16.13;57.81;94974.81;5069379;28;20039;-74
2023/06/07 05:33:45;;;;;;;5.95;2.40;;;;;;;16.03;57.02;94956.63;5085955;28;20032;-75
2023/06/07 05:36:11;;;;;;;4.80;2.22;;;;;;;16.28;57.27;94974.09;5085396;28;20028;-74
2023/06/07 05:38:37;;;;;;;5.55;2.03;;;;;;;16.33;57.18;94975.44;5085630;28;20056;-73
2023/06/07 05:41:02;;;;;;;5.47;2.50;;;;;;;16.38;57.28;94975.75;5085865;28;20444;-73
2023/06/07 05:43:28;;;;;;;4.32;2.47;;;;;;;16.73;57.09;94970.28;5081699;28;20032;-77
2023/06/07 05:45:53;;;;;;;4.85;2.40;;;;;;;16.86;56.01;94972.47;5087481;28;20036;-74
2023/06/07 05:48:19;;;;;;;6.25;2.65;;;;;;;16.88;56.39;94975.78;5077380;28;20053;-74
2023/06/07 05:50:45;;;;;;;3.83;2.70;;;;;;;17.06;55.18;94972.16;5083765;28;20056;-74
2023/06/07 05:53:10;;;;;;;5.55;3.00;;;;;;;17.25;54.71;94965.78;5086456;28;20459;-74
2023/06/07 05:55:36;;;;;;;8.07;2.50;;;;;;;17.29;55.52;94964.47;5087768;28;20506;-74
2023/06/07 05:58:01;;;;;;;4.18;2.55;;;;;;;17.35;54.96;94962.00;5084367;28;20521;-74
2023/06/07 06:00:27;;;;;;;4.13;2.35;;;;;;;17.65;54.14;94957.84;5069018;28;20428;-74
2023/06/07 06:02:52;;;;;;;4.40;2.50;;;;;;;17.65;54.41;94964.91;5086513;28;20290;-74
2023/06/07 06:05:20;;;;;;;5.70;2.50;;;;;;;17.78;53.49;94962.63;5089396;28;20032;-74
2023/06/07 06:07:46;;;;;;;3.92;2.38;;;;;;;17.82;54.04;94961.31;5087784;28;20032;-74
2023/06/07 06:10:12;;;;;;;4.78;2.30;;;;;;;17.84;53.73;94966.41;5070826;28;20044;-75
2023/06/07 06:12:37;;;;;;;5.00;2.35;;;;;;;17.86;53.65;94960.00;5088993;28;20111;-74
2023/06/07 06:15:03;;;;;;;8.13;2.33;;;;;;;17.89;54.14;94958.03;5071113;28;20040;-74
2023/06/07 06:17:29;;;;;;;4.25;2.22;;;;;;;18.09;53.53;94959.28;5089341;28;20047;-74
2023/06/07 06:19:54;;;;;;;4.50;2.20;;;;;;;18.35;52.82;94959.00;5081304;28;20036;-74
2023/06/07 06:22:20;;;;;;;5.25;2.20;;;;;;;18.28;53.67;94955.41;5082372;28;20028;-77
2023/06/07 06:24:45;;;;;;;4.30;2.35;;;;;;;18.35;52.99;94945.84;5078462;28;20036;-75
2023/06/07 06:27:12;;;;;;;6.45;2.65;;;;;;;18.39;52.54;94952.41;5066047;28;20123;-74
2023/06/07 06:29:37;;;;;;;4.22;2.10;;;;;;;18.25;53.19;94959.22;5078002;28;20667;-75
2023/06/07 06:32:03;;;;;;;3.88;2.10;;;;;;;18.40;52.96;94951.41;5081774;28;20089;-74
2023/06/07 06:34:29;;;;;;;6.57;1.98;;;;;;;18.51;52.79;94958.09;5079546;28;20078;-75
2023/06/07 06:36:55;;;;;;;3.15;2.22;;;;;;;18.56;52.15;94939.19;5069403;28;20112;-79
2023/06/07 06:39:22;;;;;;;4.00;2.28;;;;;;;18.91;51.79;94958.88;5055260;28;20409;-74
2023/06/07 06:41:47;;;;;;;7.35;2.45;;;;;;;18.98;52.09;94957.19;5082753;28;20479;-75
2023/06/07 06:44:13;;;;;;;3.15;1.85;;;;;;;19.49;50.69;94967.16;5086771;28;20032;-75
2023/06/07 06:46:38;;;;;;;4.28;2.10;;;;;;;19.62;50.32;94967.38;5084815;28;20032;-75
2023/06/07 06:49:04;;;;;;;4.43;2.40;;;;;;;19.52;50.34;94967.63;5086090;28;20048;-75
2023/06/07 06:51:29;;;;;;;4.47;2.17;;;;;;;19.66;50.17;94970.50;5088159;28;20024;-74
2023/06/07 06:53:54;;;;;;;4.43;2.20;;;;;;;19.73;49.56;94968.81;5085771;28;20035;-75
2023/06/07 06:56:21;;;;;;;3.45;2.30;;;;;;;19.84;49.64;94961.28;5079703;28;20028;-75
2023/06/07 06:58:46;;;;;;;3.40;2.20;;;;;;;19.86;49.06;94967.19;5059208;28;20587;-75
2023/06/07 07:01:13;;;;;;;4.95;2.20;;;;;;;20.00;48.58;94955.00;5082826;28;20032;-75
2023/06/07 07:03:40;;;;;;;4.45;2.60;;;;;;;19.83;49.65;94949.06;5067893;28;20040;-74
2023/06/07 07:06:07;;;;;;;4.85;2.35;;;;;;;19.86;50.05;94955.81;5085373;28;20047;-75
2023/06/07 07:08:34;;;;;;;6.03;2.20;;;;;;;19.81;49.26;94950.28;5085159;28;20024;-75
2023/06/07 07:10:59;;;;;;;4.22;2.25;;;;;;;20.18;49.16;94951.19;5071818;28;20413;-75
2023/06/07 07:13:25;;;;;;;3.58;1.98;;;;;;;20.22;49.17;94957.72;5084219;28;20064;-75
2023/06/07 07:15:50;;;;;;;3.58;2.40;;;;;;;20.05;49.04;94955.25;5083325;28;20071;-75
2023/06/07 07:18:16;;;;;;;3.70;2.50;;;;;;;20.13;49.49;94953.53;5084711;28;20020;-75
2023/06/07 07:20:41;;;;;;;4.35;2.38;;;;;;;20.26;48.99;94954.53;5089084;28;20480;-75
2023/06/07 07:23:07;;;;;;;3.45;2.30;;;;;;;20.33;48.56;94949.34;5089001;28;20047;-75
2023/06/07 07:25:32;;;;;;;2.92;2.08;;;;;;;20.68;47.96;94946.97;5087195;28;20032;-75
2023/06/07 07:27:58;;;;;;;2.83;2.00;;;;;;;20.81;47.54;94946.25;5088418;28;20078;-75
2023/06/07 07:30:23;;;;;;;4.00;2.03;;;;;;;20.62;48.09;94951.16;5069430;28;20036;-75
2023/06/07 07:32:49;;;;;;;2.90;2.15;;;;;;;20.70;48.51;94944.97;5089226;28;20028;-75
2023/06/07 07:35:14;;;;;;;4.38;2.42;;;;;;;20.94;46.65;94923.47;5081006;28;20036;-75
2023/06/07 07:37:40;;;;;;;3.85;2.30;;;;;;;20.86;47.62;94947.34;5051360;28;20483;-75
2023/06/07 07:40:09;;;;;;;3.47;2.40;;;;;;;20.85;48.02;94945.72;5085918;28;20062;-75
2023/06/07 07:42:34;;;;;;;7.30;2.47;;;;;;;20.78;47.90;94930.81;5087879;28;20036;-72
2023/06/07 07:45:00;;;;;;;5.57;2.50;;;;;;;20.73;47.81;94953.31;5069613;28;20031;-76
2023/06/07 07:47:25;;;;;;;3.35;2.03;;;;;;;20.82;47.53;94951.38;5089067;28;20039;-76
2023/06/07 07:49:51;;;;;;;4.28;2.53;;;;;;;20.79;47.62;94946.47;5086453;28;20051;-75
2023/06/07 07:52:17;;;;;;;6.22;2.40;;;;;;;21.02;47.93;94937.56;5089246;28;20031;-76
2023/06/07 07:54:43;;;;;;;4.10;2.53;;;;;;;21.19;48.10;94945.03;5085524;28;20497;-76
2023/06/07 07:57:08;;;;;;;4.80;2.63;;;;;;;21.14;48.44;94943.97;5088518;28;20107;-76
2023/06/07 07:59:34;;;;;;;5.68;2.22;;;;;;;21.31;47.61;94942.72;5086343;28;20078;-76
2023/06/07 08:01:59;;;;;;;5.90;2.22;;;;;;;21.51;46.55;94947.38;5070135;28;20031;-76
2023/06/07 08:04:25;;;;;;;4.43;2.70;;;;;;;21.77;46.25;94946.75;5067479;28;20035;-76
2023/06/07 08:06:50;;;;;;;3.28;2.10;;;;;;;21.69;45.94;94942.41;5087378;28;20042;-76
2023/06/07 08:09:16;;;;;;;4.85;2.30;;;;;;;21.93;46.42;94938.53;5079811;28;20051;-79
2023/06/07 08:11:41;;;;;;;3.65;2.13;;;;;;;21.88;46.16;94942.75;5080987;28;20464;-77
2023/06/07 08:14:07;;;;;;;4.70;2.33;;;;;;;21.73;46.52;94938.41;5088720;28;20103;-78
2023/06/07 08:16:32;;;;;;;4.47;2.70;;;;;;;21.99;46.19;94944.88;5069422;28;20515;-73
2023/06/07 08:18:58;;;;;;;4.88;2.35;;;;;;;22.38;46.10;94943.47;5089493;28;20031;-76
2023/06/07 08:21:24;;;;;;;8.68;2.55;;;;;;;22.34;45.34;94939.56;5087883;28;20090;-76
2023/06/07 08:23:52;;;;;;;5.18;2.50;;;;;;;22.36;45.35;94940.19;5053634;28;20032;-78
2023/06/07 08:26:18;;;;;;;3.75;2.58;;;;;;;22.40;46.62;94952.00;5049688;28;20090;-73
2023/06/07 08:28:44;;;;;;;8.00;2.90;;;;;;;22.78;45.17;94946.25;5081663;28;20457;-73
2023/06/07 08:31:10;;;;;;;5.20;2.47;;;;;;;22.44;48.58;94942.69;5088397;28;20032;-74
2023/06/07 08:33:36;;;;;;;8.95;2.50;;;;;;;22.38;45.90;94941.63;5086459;28;20063;-73
2023/06/07 08:36:04;;;;;;;5.30;2.40;;;;;;;22.30;45.42;94942.63;5084136;28;20024;-72
2023/06/07 08:38:29;;;;;;;6.13;2.20;;;;;;;22.27;45.72;94940.34;5085331;28;20030;-72
2023/06/07 08:40:55;;;;;;;3.83;2.28;;;;;;;22.39;46.18;94937.97;5086840;28;20032;-74
2023/06/07 08:43:21;;;;;;;4.70;2.80;;;;;;;22.74;45.22;94944.00;5085776;28;20043;-73
2023/06/07 08:45:47;;;;;;;3.08;2.38;;;;;;;22.54;45.78;94940.50;5068699;28;20043;-74
2023/06/07 08:48:13;;;;;;;6.63;2.42;;;;;;;22.38;45.27;94923.13;5070492;28;20048;-74
2023/06/07 08:50:38;;;;;;;5.65;2.70;;;;;;;22.60;45.43;94925.66;5053442;28;20043;-72
2023/06/07 08:53:12;;;;;;;4.10;2.42;;;;;;;22.68;44.96;94938.72;5085490;28;20578;-79
2023/06/07 08:55:37;;;;;;;6.38;2.40;;;;;;;22.55;45.43;94941.31;5051755;28;20027;-79
2023/06/07 08:58:03;;;;;;;3.10;2.20;;;;;;;22.73;45.29;94939.75;5086992;28;20036;-80
2023/06/07 09:00:28;;;;;;;3.40;2.40;;;;;;;22.62;45.27;94942.97;5070012;28;20421;-76
2023/06/07 09:02:54;;;;;;;4.30;2.50;;;;;;;22.62;44.69;94937.66;5069123;28;20044;-78
2023/06/07 09:05:20;;;;;;;3.97;2.45;;;;;;;23.02;44.03;94940.44;5083589;28;20040;-77
2023/06/07 09:07:46;;;;;;;5.13;2.88;;;;;;;23.16;44.71;94936.81;5065543;28;20614;-76
2023/06/07 09:10:13;;;;;;;8.52;2.67;;;;;;;23.26;44.21;94938.22;5068266;28;20044;-77
2023/06/07 09:12:39;;;;;;;3.40;2.30;;;;;;;22.99;43.92;94938.19;5085210;28;20444;-77
2023/06/07 09:15:07;;;;;;;4.57;2.38;;;;;;;22.99;44.97;94935.56;5084992;28;20490;-76
2023/06/07 09:18:02;;;;;;;6.20;2.60;;;;;;;22.80;45.25;94936.28;5059498;28;20036;-76
2023/06/07 09:20:33;;;;;;;4.00;2.50;;;;;;;23.05;44.96;94936.59;5085157;28;20039;-76
2023/06/07 09:23:09;;;;;;;4.32;2.65;;;;;;;22.72;44.98;94938.09;5055612;28;20529;-76
2023/06/07 09:25:35;;;;;;;3.85;2.40;;;;;;;22.85;44.70;94939.16;5088238;28;20043;-76
2023/06/07 09:28:13;;;;;;;5.18;2.85;;;;;;;22.74;45.24;94929.97;5066820;28;20036;-76
2023/06/07 09:30:51;;;;;;;3.45;2.30;;;;;;;22.64;45.30;94935.63;5052267;28;20046;-76
2023/06/07 09:33:29;;;;;;;4.13;2.50;;;;;;;22.84;44.83;94932.22;5068680;28;20078;-76
2023/06/07 09:36:12;;;;;;;4.88;2.72;;;;;;;22.87;45.98;94927.34;5051804;28;20116;-76
2023/06/07 09:38:38;;;;;;;6.60;2.50;;;;;;;22.75;45.23;94931.59;5069495;28;20457;-76
2023/06/07 09:41:05;;;;;;;5.82;2.40;;;;;;;23.02;45.19;94929.03;5088440;28;20024;-76
2023/06/07 09:43:47;;;;;;;5.90;2.40;;;;;;;23.30;43.92;94918.28;5054864;28;20624;-76
2023/06/07 09:46:15;;;;;;;12.10;2.60;;;;;;;23.49;43.83;94924.59;5056409;28;20028;-76
2023/06/07 09:48:48;;;;;;;4.13;2.35;;;;;;;23.38;43.05;94912.78;5050965;28;20532;-77
2023/06/07 09:51:13;;;;;;;3.20;2.42;;;;;;;23.29;43.59;94924.56;5053551;28;20036;-76
2023/06/07 09:54:11;;;;;;;3.75;2.38;;;;;;;23.56;44.95;94926.22;5083386;28;20036;-77
2023/06/07 09:56:40;;;;;;;5.53;2.53;;;;;;;23.62;43.14;94924.56;5066909;28;20048;-76
2023/06/07 09:59:10;;;;;;;4.15;2.47;;;;;;;23.60;42.84;94927.44;5075040;28;20028;-76
2023/06/07 10:01:37;;;;;;;2.90;2.17;;;;;;;23.49;42.45;94914.81;5095692;28;20035;-76
2023/06/07 10:04:07;;;;;;;4.55;2.30;;;;;;;23.59;42.28;94925.00;5060760;28;20600;-76
2023/06/07 10:06:33;;;;;;;5.28;2.22;;;;;;;23.37;42.81;94917.25;5060845;28;20035;-78
2023/06/07 10:09:00;;;;;;;4.03;2.20;;;;;;;23.00;42.88;94913.34;5059481;28;20063;-76
2023/06/07 10:11:26;;;;;;;3.47;2.35;;;;;;;23.11;42.51;94911.94;5088220;28;20032;-76
2023/06/07 10:13:52;;;;;;;5.53;2.58;;;;;;;23.25;42.99;94912.75;5077111;28;20123;-75
2023/06/07 10:16:18;;;;;;;4.15;2.58;;;;;;;23.21;42.48;94909.72;5072207;28;20072;-80
2023/06/07 10:18:43;;;;;;;3.95;2.42;;;;;;;23.15;42.69;94913.97;5065240;28;20114;-76
2023/06/07 10:21:15;;;;;;;5.63;2.78;;;;;;;23.17;42.65;94914.56;5059225;28;20047;-75
2023/06/07 10:23:44;;;;;;;3.72;2.92;;;;;;;23.24;42.38;94908.50;5058092;28;20028;-75
2023/06/07 10:26:15;;;;;;;3.17;2.25;;;;;;;23.26;42.50;94901.94;5070212;28;20450;-75
2023/06/07 10:28:49;;;;;;;6.35;2.33;;;;;;;23.24;42.21;94897.88;5052412;28;20031;-75
2023/06/07 10:31:14;;;;;;;3.33;2.30;;;;;;;23.16;43.60;94910.31;5053595;28;20028;-75
2023/06/07 10:33:40;;;;;;;5.00;2.30;;;;;;;22.97;43.96;94905.78;5070800;28;20086;-75
2023/06/07 10:36:07;;;;;;;3.45;2.40;;;;;;;22.62;43.21;94905.91;5054164;28;20309;-76
2023/06/07 10:38:33;;;;;;;5.45;2.33;;;;;;;22.83;45.16;94898.81;5070888;28;20034;-75
2023/06/07 10:41:00;;;;;;;5.43;2.40;;;;;;;22.96;43.20;94897.03;5053664;28;20045;-75
2023/06/07 10:43:29;;;;;;;4.72;2.40;;;;;;;23.16;43.06;94904.19;5070615;28;20029;-75
2023/06/07 10:46:20;;;;;;;3.25;2.17;;;;;;;23.16;42.84;94905.00;5070648;28;20119;-75
2023/06/07 10:48:45;;;;;;;4.03;2.50;;;;;;;23.25;42.43;94900.31;5054538;28;20052;-75
2023/06/07 10:51:15;;;;;;;3.72;2.40;;;;;;;23.17;42.36;94869.53;5055562;28;20097;-75
2023/06/07 10:53:55;;;;;;;3.38;2.40;;;;;;;23.33;42.88;94899.31;5072277;28;20024;-75
2023/06/07 10:56:37;;;;;;;5.03;2.35;;;;;;;23.35;41.88;94897.28;5055407;28;20043;-75
2023/06/07 10:59:15;;;;;;;6.22;2.67;;;;;;;23.52;42.64;94893.19;5055861;28;20097;-75
2023/06/07 11:01:48;;;;;;;7.05;2.50;;;;;;;23.68;42.69;94888.47;5072516;28;20543;-75
2023/06/07 11:04:55;;;;;;;3.83;2.30;;;;;;;23.68;42.10;94880.50;5055300;28;20029;-75
2023/06/07 11:07:30;;;;;;;3.65;1.98;;;;;;;23.73;42.85;94880.75;5052473;28;20128;-75
2023/06/07 11:10:04;;;;;;;2.65;2.08;;;;;;;23.84;41.93;94878.25;5072066;28;20115;-75
2023/06/07 11:12:40;;;;;;;10.18;2.60;;;;;;;23.96;41.33;94878.47;5076997;28;20035;-75
2023/06/07 11:15:21;;;;;;;6.72;2.33;;;;;;;23.93;42.87;94880.69;5089572;28;20036;-75
2023/06/07 11:17:56;;;;;;;3.85;2.40;;;;;;;23.87;41.61;94869.09;5092007;28;20050;-75
2023/06/07 11:20:37;;;;;;;5.43;2.70;;;;;;;23.83;41.78;94871.34;5090930;28;20482;-75
2023/06/07 11:23:21;;;;;;;4.70;2.20;;;;;;;23.79;42.14;94861.34;5092145;28;20024;-75
2023/06/07 11:25:48;;;;;;;4.20;2.30;;;;;;;23.50;42.79;94863.41;5092143;28;20481;-75
2023/06/07 11:28:13;;;;;;;3.72;2.58;;;;;;;23.58;41.77;94860.53;5073565;28;20031;-75
2023/06/07 11:30:40;;;;;;;5.70;2.30;;;;;;;23.68;42.01;94854.00;5073617;28;20040;-76
2023/06/07 11:33:06;;;;;;;6.53;2.60;;;;;;;23.59;41.08;94851.56;5073536;28;20063;-75
2023/06/07 11:35:31;;;;;;;4.05;2.50;;;;;;;23.71;42.07;94856.25;5091482;28;20032;-75